Terminal Aerodrome Forecast
Issued by NWS

Home | Current Version | Previous Version | Text Only | Print | Product List | Glossary On
Versions: 1 2 3 4 5 6 7 8 9 10 11 12 13 14 15 16 17 18 19 20
000
FTUS43 KJKL 240600 AAA
TAFSME
TAF AMD
KSME 240653Z 2407/2506 VRB03KT P6SM SCT005 BKN200
      TEMPO 2407/2410 00000KT 2SM BR BKN002
     FM241000 00000KT 4SM BR SCT002 BKN200
     FM241400 34005KT P6SM SCT120=

USA.gov is the U.S. government's official web portal to all federal, state and local government web resources and services.